Time;durP1;ratioP1;P1;durP2;ratioP2;P2;SDS_P1;SDS_P2;PMS_P1;PMS_P2;Temp;Humidity;BMP_temperature;BMP_pressure;BME280_temperature;BME280_humidity;BME280_pressure;Samples;Min_cycle;Max_cycle;Signal;HPM_P1;HPM_P2
2021/10/24 00:03:08;;;;;;;10.57;7.73;;;;;7.40;102143.00;;;;10431621;28;20218;-78
2021/10/24 00:08:10;;;;;;;8.30;6.67;;;;;7.40;102130.00;;;;10436698;28;20259;-79
2021/10/24 00:13:12;;;;;;;8.80;6.47;;;;;7.40;102117.00;;;;10453452;28;20205;-78
2021/10/24 00:18:14;;;;;;;11.90;6.80;;;;;7.30;102127.00;;;;10454490;28;20198;-78
2021/10/24 00:23:16;;;;;;;8.70;6.00;;;;;7.30;102128.00;;;;10469873;28;20217;-78
2021/10/24 00:28:18;;;;;;;8.90;5.90;;;;;7.10;102111.00;;;;10435792;28;20288;-79
2021/10/24 00:33:22;;;;;;;9.47;6.13;;;;;6.80;102103.00;;;;10468605;28;20247;-78
2021/10/24 00:38:25;;;;;;;6.83;6.07;;;;;6.60;102105.00;;;;10469611;28;20229;-78
2021/10/24 00:43:27;;;;;;;11.00;7.40;;;;;6.50;102091.00;;;;10444244;28;20214;-78
2021/10/24 00:48:29;;;;;;;9.70;6.57;;;;;6.60;102091.00;;;;10409699;28;20844;-79
2021/10/24 00:53:32;;;;;;;10.97;7.30;;;;;6.70;102079.00;;;;10428470;28;20253;-79
2021/10/24 00:58:34;;;;;;;12.37;8.00;;;;;6.80;102089.00;;;;10435391;28;20201;-78
2021/10/24 01:03:37;;;;;;;11.07;8.07;;;;;6.80;102092.00;;;;10414991;28;20214;-78
2021/10/24 01:08:40;;;;;;;12.27;7.93;;;;;6.80;102091.00;;;;10439272;28;20243;-78
2021/10/24 01:13:42;;;;;;;9.83;7.60;;;;;6.90;102085.00;;;;10429902;28;20205;-78
2021/10/24 01:18:45;;;;;;;15.00;8.57;;;;;6.90;102084.00;;;;10404918;28;20228;-78
2021/10/24 01:23:48;;;;;;;10.67;7.60;;;;;6.90;102071.00;;;;10433752;28;20213;-78
2021/10/24 01:28:50;;;;;;;10.03;8.13;;;;;6.80;102068.00;;;;10453498;28;20690;-78
2021/10/24 01:33:52;;;;;;;10.90;7.13;;;;;6.80;102067.00;;;;10459637;28;20197;-78
2021/10/24 01:38:56;;;;;;;11.23;7.53;;;;;6.80;102067.00;;;;10423888;28;20268;-78
2021/10/24 01:44:00;;;;;;;10.07;8.10;;;;;6.70;102056.00;;;;10435621;28;20743;-79
2021/10/24 01:49:03;;;;;;;9.10;7.23;;;;;6.70;102059.00;;;;10432554;28;20204;-78
2021/10/24 01:54:05;;;;;;;11.63;8.27;;;;;6.70;102054.00;;;;10447738;28;20634;-78
2021/10/24 01:59:07;;;;;;;12.43;8.20;;;;;6.70;102045.00;;;;10434577;28;20245;-78
2021/10/24 02:04:47;;;;;;;9.27;7.93;;;;;6.60;102038.00;;;;10313837;28;20644;-78
2021/10/24 02:10:12;;;;;;;12.90;7.80;;;;;6.70;102033.00;;;;10407159;28;20222;-78
2021/10/24 02:15:15;;;;;;;11.33;8.60;;;;;6.70;102030.00;;;;10422917;28;20267;-78
2021/10/24 02:20:17;;;;;;;10.57;7.83;;;;;6.70;102028.00;;;;10394423;28;20197;-78
2021/10/24 02:25:19;;;;;;;14.97;8.37;;;;;6.70;102018.00;;;;10402983;28;20879;-78
2021/10/24 02:30:23;;;;;;;13.53;8.17;;;;;6.70;102023.00;;;;10458145;28;20195;-78
2021/10/24 02:35:25;;;;;;;14.67;9.00;;;;;6.70;102017.00;;;;10439235;28;20213;-78
2021/10/24 02:40:29;;;;;;;14.00;8.37;;;;;6.70;102011.00;;;;10418004;28;20205;-78
2021/10/24 02:45:31;;;;;;;12.60;7.77;;;;;6.60;102014.00;;;;10480065;28;20241;-78
2021/10/24 02:50:34;;;;;;;9.10;7.63;;;;;6.60;102010.00;;;;10417649;28;20198;-78
2021/10/24 02:55:36;;;;;;;11.93;7.33;;;;;6.50;102008.00;;;;10425407;28;20229;-78
2021/10/24 03:00:38;;;;;;;10.43;7.90;;;;;6.40;102003.00;;;;10443456;28;20211;-78
2021/10/24 03:05:41;;;;;;;10.80;8.37;;;;;6.40;102000.00;;;;10445668;28;20675;-78
2021/10/24 03:10:43;;;;;;;9.27;7.70;;;;;6.40;101989.00;;;;10445823;28;20628;-78
2021/10/24 03:15:45;;;;;;;13.33;7.90;;;;;6.30;101985.00;;;;10420428;28;20205;-78
2021/10/24 03:20:48;;;;;;;9.83;7.37;;;;;6.30;101972.00;;;;10429066;28;20193;-78
2021/10/24 03:25:50;;;;;;;13.90;7.30;;;;;6.20;101970.00;;;;10455366;28;20704;-78
2021/10/24 03:30:55;;;;;;;11.43;7.10;;;;;6.20;101973.00;;;;10404548;28;20202;-78
2021/10/24 03:35:57;;;;;;;8.00;6.77;;;;;6.20;101970.00;;;;10480216;28;20283;-78
2021/10/24 03:40:59;;;;;;;13.00;7.73;;;;;6.20;101967.00;;;;10488680;28;20205;-78
2021/10/24 03:46:02;;;;;;;8.50;6.80;;;;;6.20;101968.00;;;;10453162;28;20653;-78
2021/10/24 03:51:04;;;;;;;10.57;7.17;;;;;6.20;101972.00;;;;10448937;28;20235;-78
2021/10/24 03:56:06;;;;;;;15.50;6.57;;;;;6.10;101974.00;;;;10425922;28;20300;-78
2021/10/24 04:01:14;;;;;;;11.27;6.43;;;;;6.10;101977.00;;;;10441549;28;20228;-79
2021/10/24 04:06:16;;;;;;;9.43;6.70;;;;;6.00;101973.00;;;;10450793;28;20815;-79
2021/10/24 04:11:20;;;;;;;14.87;6.83;;;;;6.00;101978.00;;;;10452476;28;20244;-78
2021/10/24 04:16:22;;;;;;;12.37;8.17;;;;;6.00;101977.00;;;;10451546;28;20216;-78
2021/10/24 04:21:38;;;;;;;8.93;6.90;;;;;6.00;101972.00;;;;10446338;28;20204;-78
2021/10/24 04:26:45;;;;;;;9.87;6.80;;;;;6.00;101970.00;;;;10450615;28;20300;-78
2021/10/24 04:31:47;;;;;;;10.87;6.97;;;;;5.90;101965.00;;;;10452791;28;20208;-78
2021/10/24 04:36:50;;;;;;;17.33;6.70;;;;;5.90;101957.00;;;;10450564;28;20227;-78
2021/10/24 04:41:52;;;;;;;9.43;7.20;;;;;5.90;101969.00;;;;10469111;28;20200;-78
2021/10/24 04:46:53;;;;;;;10.13;6.40;;;;;5.80;101964.00;;;;10459660;28;20221;-78
2021/10/24 04:51:57;;;;;;;9.87;6.27;;;;;5.80;101948.00;;;;10453342;28;20197;-78
2021/10/24 04:56:59;;;;;;;6.80;5.70;;;;;5.70;101948.00;;;;10467030;28;20332;-78
2021/10/24 05:02:01;;;;;;;11.43;6.10;;;;;5.50;101944.00;;;;10442638;28;20554;-79
2021/10/24 05:07:04;;;;;;;10.53;6.20;;;;;5.40;101951.00;;;;10459478;28;20217;-79
2021/10/24 05:12:07;;;;;;;9.90;6.30;;;;;5.20;101928.00;;;;10440444;28;20584;-78
2021/10/24 05:17:10;;;;;;;8.87;6.73;;;;;5.00;101916.00;;;;10463904;28;20691;-78
2021/10/24 05:22:12;;;;;;;11.07;7.00;;;;;4.80;101907.00;;;;10433658;28;20292;-78
2021/10/24 05:27:15;;;;;;;11.83;7.60;;;;;4.60;101903.00;;;;10449044;28;20573;-77
2021/10/24 05:32:18;;;;;;;7.60;6.50;;;;;4.60;101901.00;;;;10431884;28;20665;-78
2021/10/24 05:37:21;;;;;;;10.30;7.30;;;;;4.50;101898.00;;;;10416260;28;20452;-78
2021/10/24 05:42:23;;;;;;;9.10;7.03;;;;;4.30;101892.00;;;;10448525;28;20579;-78
2021/10/24 05:47:28;;;;;;;8.93;6.73;;;;;4.20;101891.00;;;;10450343;28;20217;-78
2021/10/24 05:52:36;;;;;;;10.97;8.00;;;;;4.00;101878.00;;;;10432273;28;20204;-77
2021/10/24 05:57:39;;;;;;;11.73;8.80;;;;;3.90;101874.00;;;;10466173;28;20196;-77
2021/10/24 06:03:07;;;;;;;14.23;8.37;;;;;3.80;101874.00;;;;10433793;28;20202;-78
2021/10/24 06:08:23;;;;;;;11.07;6.87;;;;;3.70;101864.00;;;;10423971;28;20217;-78
2021/10/24 06:13:26;;;;;;;10.90;7.53;;;;;3.60;101856.00;;;;10445324;28;20247;-78
2021/10/24 06:18:27;;;;;;;12.77;8.90;;;;;3.50;101849.00;;;;10436193;28;20439;-78
2021/10/24 06:23:29;;;;;;;13.37;9.07;;;;;3.40;101851.00;;;;10447723;28;20197;-78
2021/10/24 06:28:35;;;;;;;13.60;9.30;;;;;3.40;101843.00;;;;10438309;28;20202;-78
2021/10/24 06:33:44;;;;;;;17.33;10.00;;;;;3.40;101839.00;;;;10454009;28;20204;-78
2021/10/24 06:39:06;;;;;;;16.00;9.87;;;;;3.50;101836.00;;;;10431413;28;20216;-78
2021/10/24 06:44:11;;;;;;;24.20;9.60;;;;;3.50;101838.00;;;;10434701;28;20680;-78
2021/10/24 06:49:31;;;;;;;15.93;10.03;;;;;3.60;101838.00;;;;10448961;28;20204;-78
2021/10/24 06:54:53;;;;;;;19.83;11.00;;;;;3.70;101834.00;;;;10447150;28;20305;-78
2021/10/24 07:00:18;;;;;;;15.97;10.10;;;;;3.80;101830.00;;;;10459686;28;20286;-78
2021/10/24 07:05:52;;;;;;;14.73;10.80;;;;;4.00;101829.00;;;;10415941;28;20205;-78
2021/10/24 07:11:00;;;;;;;16.67;11.97;;;;;4.10;101828.00;;;;10421113;28;20214;-79
2021/10/24 07:16:03;;;;;;;19.90;11.77;;;;;4.40;101830.00;;;;10442347;28;20212;-78
2021/10/24 07:21:06;;;;;;;18.07;10.50;;;;;4.70;101827.00;;;;10280246;28;20198;-78
2021/10/24 07:26:09;;;;;;;13.67;9.60;;;;;5.10;101835.00;;;;10429380;28;20324;-80
2021/10/24 07:31:11;;;;;;;14.40;9.47;;;;;5.60;101838.00;;;;10404575;28;20229;-79
2021/10/24 07:36:14;;;;;;;11.67;7.73;;;;;6.10;101838.00;;;;10201980;28;20209;-79
2021/10/24 07:41:16;;;;;;;11.93;7.07;;;;;6.50;101844.00;;;;10195933;28;20201;-79
2021/10/24 07:46:18;;;;;;;12.20;6.50;;;;;6.70;101841.00;;;;10227470;28;20221;-80
2021/10/24 07:51:21;;;;;;;10.53;6.53;;;;;6.90;101851.00;;;;10206393;28;20198;-79
2021/10/24 07:56:23;;;;;;;7.60;5.23;;;;;7.10;101854.00;;;;10142082;28;20280;-79
2021/10/24 08:01:35;;;;;;;10.33;6.00;;;;;7.30;101851.00;;;;10339984;28;20239;-79
2021/10/24 08:06:38;;;;;;;8.00;5.77;;;;;7.50;101848.00;;;;10445736;28;20664;-78
2021/10/24 08:11:43;;;;;;;7.13;5.20;;;;;7.70;101842.00;;;;10459580;28;20634;-79
2021/10/24 08:16:46;;;;;;;7.40;5.20;;;;;8.20;101837.00;;;;10440639;28;20197;-79
2021/10/24 08:21:52;;;;;;;6.07;3.93;;;;;8.80;101838.00;;;;10454997;28;20223;-79
2021/10/24 08:26:55;;;;;;;6.33;4.27;;;;;9.30;101834.00;;;;10433853;28;20627;-79
2021/10/24 08:31:58;;;;;;;6.07;3.90;;;;;9.70;101825.00;;;;10460606;28;20225;-79
2021/10/24 08:37:00;;;;;;;6.57;3.73;;;;;10.10;101828.00;;;;10460759;28;20189;-79
2021/10/24 08:42:04;;;;;;;5.60;3.40;;;;;10.30;101817.00;;;;10211126;28;20213;-80
2021/10/24 08:47:09;;;;;;;4.13;3.20;;;;;10.60;101818.00;;;;10374830;28;20222;-79
2021/10/24 08:52:12;;;;;;;7.13;3.30;;;;;10.90;101813.00;;;;10450876;28;20781;-80
2021/10/24 08:57:29;;;;;;;8.83;3.70;;;;;11.20;101808.00;;;;10407860;28;20252;-79
2021/10/24 09:02:53;;;;;;;4.43;2.87;;;;;11.50;101797.00;;;;10418714;28;20641;-80
2021/10/24 09:07:56;;;;;;;6.17;3.13;;;;;11.80;101792.00;;;;10418955;28;20221;-79
2021/10/24 09:13:10;;;;;;;5.00;2.60;;;;;12.00;101803.00;;;;10448357;28;20221;-79
2021/10/24 09:18:12;;;;;;;8.07;3.40;;;;;12.20;101801.00;;;;10420777;28;20251;-80
2021/10/24 09:23:30;;;;;;;3.60;3.03;;;;;12.40;101797.00;;;;10424887;28;20296;-81
2021/10/24 09:28:33;;;;;;;6.37;3.30;;;;;12.50;101806.00;;;;10429485;28;20251;-80
2021/10/24 09:33:46;;;;;;;4.07;3.40;;;;;12.70;101810.00;;;;10438777;28;20201;-80
2021/10/24 09:38:48;;;;;;;4.77;3.20;;;;;12.90;101817.00;;;;10413698;28;20566;-80
2021/10/24 09:44:14;;;;;;;4.93;3.10;;;;;13.10;101818.00;;;;10405607;28;20202;-80
2021/10/24 09:49:17;;;;;;;8.27;4.23;;;;;13.20;101812.00;;;;10405715;28;20198;-80
2021/10/24 09:54:25;;;;;;;5.23;3.43;;;;;13.40;101816.00;;;;10421776;28;20198;-80
2021/10/24 09:59:28;;;;;;;8.73;4.90;;;;;13.50;101811.00;;;;10404966;28;20198;-80
2021/10/24 10:04:30;;;;;;;4.10;2.70;;;;;13.70;101804.00;;;;10453106;28;20222;-80
2021/10/24 10:09:32;;;;;;;3.37;2.93;;;;;13.90;101810.00;;;;10420457;28;20221;-80
2021/10/24 10:14:36;;;;;;;4.10;3.30;;;;;14.10;101812.00;;;;10437269;28;20202;-80
2021/10/24 10:19:41;;;;;;;4.53;3.00;;;;;14.40;101813.00;;;;10415762;28;20206;-80
2021/10/24 10:24:45;;;;;;;6.20;3.27;;;;;14.60;101799.00;;;;10411963;28;20309;-80
2021/10/24 10:29:57;;;;;;;6.23;3.33;;;;;14.90;101792.00;;;;10446077;28;20292;-81
2021/10/24 10:35:09;;;;;;;5.93;3.30;;;;;15.20;101802.00;;;;10512384;28;20208;-80
2021/10/24 10:40:25;;;;;;;4.30;2.80;;;;;15.60;101802.00;;;;10486017;28;20559;-80
2021/10/24 10:45:37;;;;;;;5.60;3.03;;;;;15.70;101790.00;;;;10479917;28;20293;-80
2021/10/24 10:50:41;;;;;;;3.88;2.90;;;;;15.90;101783.00;;;;10478024;28;20198;-80
2021/10/24 10:55:55;;;;;;;3.67;3.07;;;;;16.20;101784.00;;;;10428305;28;20197;-81
2021/10/24 11:00:57;;;;;;;5.80;3.22;;;;;16.30;101781.00;;;;10444452;28;20251;-80
2021/10/24 11:05:59;;;;;;;5.38;3.67;;;;;16.40;101767.00;;;;10441434;28;20210;-81
2021/10/24 11:11:01;;;;;;;4.30;2.47;;;;;16.40;101768.00;;;;10460925;28;20217;-80
2021/10/24 11:16:29;;;;;;;3.60;2.63;;;;;16.30;101763.00;;;;10429244;28;20202;-80
2021/10/24 11:21:31;;;;;;;4.72;2.80;;;;;16.30;101749.00;;;;10401087;28;20198;-80
2021/10/24 11:26:33;;;;;;;4.72;2.97;;;;;16.30;101753.00;;;;10418942;28;20283;-80
2021/10/24 11:31:35;;;;;;;5.75;3.22;;;;;16.30;101744.00;;;;10422282;28;20229;-80
2021/10/24 11:36:45;;;;;;;3.45;2.60;;;;;16.50;101732.00;;;;10443803;28;20778;-80
2021/10/24 11:41:46;;;;;;;6.78;3.63;;;;;16.40;101731.00;;;;10386648;28;20195;-80
2021/10/24 11:47:14;;;;;;;3.65;3.00;;;;;16.40;101721.00;;;;10402054;28;20260;-80
2021/10/24 11:52:29;;;;;;;7.97;3.70;;;;;16.50;101727.00;;;;10418611;28;20201;-80
2021/10/24 11:57:46;;;;;;;4.93;2.88;;;;;16.60;101708.00;;;;10404305;28;20200;-80
2021/10/24 12:02:59;;;;;;;3.42;2.83;;;;;16.70;101717.00;;;;10444488;28;20228;-80
2021/10/24 12:08:05;;;;;;;4.40;3.03;;;;;16.80;101719.00;;;;10435950;28;20217;-80
2021/10/24 12:13:29;;;;;;;4.57;2.40;;;;;16.90;101718.00;;;;10479817;28;20209;-80
2021/10/24 12:18:38;;;;;;;5.25;2.28;;;;;17.00;101721.00;;;;10443728;28;20202;-80
2021/10/24 12:23:40;;;;;;;8.75;2.70;;;;;17.20;101716.00;;;;10426041;28;20259;-80
2021/10/24 12:28:43;;;;;;;6.82;2.90;;;;;17.10;101714.00;;;;10460999;28;20217;-80
2021/10/24 12:33:46;;;;;;;6.15;2.67;;;;;17.00;101711.00;;;;10466770;28;20239;-80
2021/10/24 12:38:53;;;;;;;5.97;4.50;;;;;17.00;101694.00;;;;10434235;28;20202;-80
2021/10/24 12:43:55;;;;;;;6.13;3.22;;;;;16.90;101693.00;;;;10407845;28;20220;-80
2021/10/24 12:49:08;;;;;;;7.75;2.90;;;;;16.80;101695.00;;;;10447258;28;20217;-80
2021/10/24 12:54:12;;;;;;;5.68;2.55;;;;;16.60;101677.00;;;;10449935;28;20209;-80
2021/10/24 12:59:14;;;;;;;6.85;2.95;;;;;16.40;101674.00;;;;10449696;28;20668;-80
2021/10/24 13:04:18;;;;;;;3.83;2.47;;;;;16.20;101673.00;;;;10423436;28;20210;-80
2021/10/24 13:09:22;;;;;;;4.28;2.75;;;;;15.90;101661.00;;;;10423717;28;20229;-80
2021/10/24 13:14:24;;;;;;;3.58;2.72;;;;;15.60;101658.00;;;;10423491;28;20202;-80
2021/10/24 13:19:25;;;;;;;3.60;2.63;;;;;15.30;101644.00;;;;10446296;28;20615;-80
2021/10/24 13:24:27;;;;;;;4.40;2.75;;;;;15.20;101652.00;;;;10447456;28;20255;-80
2021/10/24 13:29:29;;;;;;;6.72;2.95;;;;;15.10;101636.00;;;;10463759;28;20225;-79
2021/10/24 13:34:31;;;;;;;5.60;2.70;;;;;15.00;101635.00;;;;10431954;28;20202;-79
2021/10/24 13:39:34;;;;;;;3.63;2.70;;;;;14.90;101620.00;;;;10419219;28;20213;-80
2021/10/24 13:44:36;;;;;;;5.23;2.93;;;;;14.80;101608.00;;;;10447152;28;20209;-80
2021/10/24 13:49:38;;;;;;;3.63;2.67;;;;;14.80;101605.00;;;;10463390;28;20274;-79
2021/10/24 13:54:40;;;;;;;4.10;2.40;;;;;14.70;101594.00;;;;10437910;28;20260;-80
2021/10/24 13:59:44;;;;;;;4.67;2.40;;;;;14.70;101590.00;;;;10421028;28;20668;-80
2021/10/24 14:04:46;;;;;;;3.20;2.80;;;;;14.50;101587.00;;;;10429906;28;20255;-80
2021/10/24 14:09:50;;;;;;;3.73;2.90;;;;;14.80;101567.00;;;;10421557;28;20693;-79
2021/10/24 14:14:52;;;;;;;5.33;2.70;;;;;15.30;101569.00;;;;10420601;28;20229;-80
2021/10/24 14:19:54;;;;;;;2.30;2.10;;;;;16.10;101562.00;;;;10399954;28;20213;-79
2021/10/24 14:24:56;;;;;;;3.50;2.27;;;;;15.60;101541.00;;;;10421408;28;20198;-79
2021/10/24 14:30:04;;;;;;;4.77;3.07;;;;;15.30;101543.00;;;;10421669;28;20259;-80
2021/10/24 14:35:08;;;;;;;5.97;3.20;;;;;14.70;101535.00;;;;10443705;28;20217;-80
2021/10/24 14:40:10;;;;;;;2.37;1.90;;;;;14.70;101531.00;;;;10404458;28;20208;-79
2021/10/24 14:45:12;;;;;;;4.33;2.00;;;;;15.00;101501.00;;;;10417024;28;20218;-79
2021/10/24 14:50:15;;;;;;;5.00;2.27;;;;;15.80;101522.00;;;;10404434;28;20268;-79
2021/10/24 14:55:18;;;;;;;5.90;2.30;;;;;15.70;101494.00;;;;10388397;28;20206;-80
2021/10/24 15:00:20;;;;;;;4.50;1.90;;;;;16.10;101517.00;;;;10440278;28;20209;-80
2021/10/24 15:05:25;;;;;;;3.57;1.93;;;;;14.80;101525.00;;;;10462021;28;20221;-79
2021/10/24 15:10:27;;;;;;;5.23;2.10;;;;;14.10;101521.00;;;;10461234;28;20217;-80
2021/10/24 15:15:34;;;;;;;4.43;2.27;;;;;13.80;101516.00;;;;10461031;28;20198;-80
2021/10/24 15:25:56;;;;;;;5.80;2.27;;;;;13.30;101502.00;;;;10455717;28;20220;-80
2021/10/24 15:31:01;;;;;;;6.43;2.70;;;;;13.10;101504.00;;;;10435569;28;20271;-80
2021/10/24 15:36:06;;;;;;;4.90;3.13;;;;;13.10;101496.00;;;;10392902;28;20252;-80
2021/10/24 15:41:08;;;;;;;5.43;2.37;;;;;13.10;101494.00;;;;10418904;28;20197;-80
2021/10/24 15:46:13;;;;;;;7.37;2.20;;;;;13.00;101506.00;;;;10450570;28;20682;-81
2021/10/24 15:51:16;;;;;;;6.63;2.40;;;;;12.70;101499.00;;;;10468053;28;20193;-80
2021/10/24 15:56:18;;;;;;;7.77;2.67;;;;;12.50;101511.00;;;;10434440;28;20197;-79
2021/10/24 16:01:20;;;;;;;10.23;5.47;;;;;12.30;101497.00;;;;10467971;28;20205;-79
2021/10/24 16:06:22;;;;;;;11.17;3.80;;;;;12.20;101491.00;;;;10483511;28;20683;-79
2021/10/24 16:11:24;;;;;;;4.67;3.40;;;;;12.10;101495.00;;;;10450934;28;20218;-79
2021/10/24 16:16:26;;;;;;;5.67;3.30;;;;;11.90;101486.00;;;;10466320;28;20186;-79
2021/10/24 16:21:28;;;;;;;7.20;4.70;;;;;11.80;101475.00;;;;10450148;28;20220;-79
2021/10/24 16:26:30;;;;;;;6.73;4.03;;;;;11.70;101473.00;;;;10466265;28;20209;-79
2021/10/24 16:31:32;;;;;;;6.47;4.47;;;;;11.50;101465.00;;;;10450003;28;20549;-79
2021/10/24 16:36:34;;;;;;;6.07;3.43;;;;;11.30;101472.00;;;;10466181;28;20200;-79
2021/10/24 16:41:36;;;;;;;5.83;4.13;;;;;11.20;101475.00;;;;10466466;28;20198;-79
2021/10/24 16:46:38;;;;;;;4.90;3.93;;;;;11.00;101469.00;;;;10459172;28;20217;-79
2021/10/24 16:51:40;;;;;;;9.13;7.37;;;;;10.80;101464.00;;;;10407633;28;20199;-79
2021/10/24 16:56:42;;;;;;;10.10;5.80;;;;;10.60;101467.00;;;;10454481;28;20202;-79
2021/10/24 17:01:44;;;;;;;10.37;4.93;;;;;10.20;101463.00;;;;10410305;28;20233;-79
2021/10/24 17:06:46;;;;;;;9.73;5.10;;;;;9.90;101458.00;;;;10434397;28;20218;-79
2021/10/24 17:11:48;;;;;;;8.13;5.50;;;;;9.80;101472.00;;;;10448480;28;20271;-79
2021/10/24 17:16:51;;;;;;;7.53;4.27;;;;;9.60;101456.00;;;;10416770;28;20205;-78
2021/10/24 17:21:53;;;;;;;6.47;3.87;;;;;9.60;101469.00;;;;10402584;28;20240;-79
2021/10/24 17:26:55;;;;;;;3.67;2.93;;;;;9.60;101467.00;;;;10439792;28;20272;-79
2021/10/24 17:31:56;;;;;;;3.83;3.17;;;;;9.60;101478.00;;;;10438608;28;20201;-78
2021/10/24 17:36:58;;;;;;;6.13;3.47;;;;;9.50;101471.00;;;;10484214;28;20190;-79
2021/10/24 17:42:00;;;;;;;4.80;3.57;;;;;9.40;101469.00;;;;10464538;28;20201;-78
2021/10/24 17:47:03;;;;;;;6.00;4.10;;;;;9.30;101462.00;;;;10447738;28;20217;-78
2021/10/24 17:52:07;;;;;;;4.47;3.30;;;;;9.10;101464.00;;;;10425048;28;20194;-79
2021/10/24 17:57:09;;;;;;;5.73;3.67;;;;;9.00;101471.00;;;;10442619;28;20198;-78
2021/10/24 18:02:12;;;;;;;4.90;3.10;;;;;8.80;101456.00;;;;10450333;28;20212;-79
2021/10/24 18:07:17;;;;;;;6.63;3.17;;;;;8.80;101466.00;;;;10479340;28;20213;-79
2021/10/24 18:12:19;;;;;;;5.00;3.80;;;;;8.70;101457.00;;;;10428833;28;20217;-79
2021/10/24 18:17:21;;;;;;;13.00;7.13;;;;;8.70;101461.00;;;;10476747;28;20197;-79
2021/10/24 18:22:23;;;;;;;5.60;4.37;;;;;8.70;101466.00;;;;10445837;28;20194;-79
2021/10/24 18:27:25;;;;;;;6.87;5.07;;;;;8.60;101464.00;;;;10462312;28;20237;-79
2021/10/24 18:32:27;;;;;;;9.47;4.83;;;;;8.50;101470.00;;;;10462837;28;20199;-79
2021/10/24 18:37:29;;;;;;;9.70;4.00;;;;;8.40;101475.00;;;;10461409;28;20197;-79
2021/10/24 18:42:31;;;;;;;6.80;4.10;;;;;8.30;101472.00;;;;10462037;28;20197;-79
2021/10/24 18:47:35;;;;;;;6.17;4.30;;;;;8.20;101469.00;;;;10443006;28;20221;-79
2021/10/24 18:52:38;;;;;;;4.80;3.93;;;;;8.10;101467.00;;;;10478322;28;20190;-78
2021/10/24 18:57:40;;;;;;;7.37;4.50;;;;;8.10;101466.00;;;;10427647;28;20254;-79
2021/10/24 19:02:42;;;;;;;6.10;4.57;;;;;8.00;101459.00;;;;10425368;28;20198;-79
2021/10/24 19:07:48;;;;;;;9.27;5.40;;;;;7.90;101462.00;;;;10435734;28;20247;-79
2021/10/24 19:12:50;;;;;;;9.73;5.33;;;;;7.80;101455.00;;;;10461016;28;20313;-79
2021/10/24 19:17:52;;;;;;;9.13;5.43;;;;;7.70;101453.00;;;;10444314;28;20200;-79
2021/10/24 19:22:54;;;;;;;8.37;5.10;;;;;7.60;101453.00;;;;10455747;28;20197;-79
2021/10/24 19:27:59;;;;;;;10.10;5.30;;;;;7.60;101446.00;;;;10443834;28;20225;-78
2021/10/24 19:33:02;;;;;;;9.90;6.27;;;;;7.60;101454.00;;;;10445970;28;20627;-79
2021/10/24 19:38:04;;;;;;;13.03;8.20;;;;;7.70;101437.00;;;;10459397;28;20198;-79
2021/10/24 19:43:06;;;;;;;7.60;5.80;;;;;7.70;101438.00;;;;10423392;28;20658;-79
2021/10/24 19:48:08;;;;;;;7.70;6.23;;;;;7.70;101441.00;;;;10443795;28;20247;-78
2021/10/24 19:53:10;;;;;;;8.73;6.37;;;;;7.70;101436.00;;;;10442977;28;20194;-78
2021/10/24 19:58:12;;;;;;;7.47;4.87;;;;;7.70;101437.00;;;;10426901;28;20252;-78
2021/10/24 20:03:15;;;;;;;9.27;5.20;;;;;7.70;101440.00;;;;10424491;28;20255;-78
2021/10/24 20:08:17;;;;;;;9.03;4.97;;;;;7.70;101450.00;;;;10459984;28;20213;-79
2021/10/24 20:13:19;;;;;;;7.40;5.40;;;;;7.60;101442.00;;;;10442187;28;20194;-78
2021/10/24 20:18:20;;;;;;;13.43;6.83;;;;;7.50;101449.00;;;;10424535;28;20209;-78
2021/10/24 20:23:23;;;;;;;9.97;5.20;;;;;7.50;101437.00;;;;10465519;28;20563;-78
2021/10/24 20:28:25;;;;;;;11.27;5.63;;;;;7.40;101439.00;;;;10432125;28;20225;-79
2021/10/24 20:33:29;;;;;;;9.70;5.20;;;;;7.40;101433.00;;;;10448555;28;20189;-79
2021/10/24 20:38:30;;;;;;;7.90;5.27;;;;;7.40;101433.00;;;;10433801;28;20263;-79
2021/10/24 20:43:32;;;;;;;7.90;5.43;;;;;7.30;101439.00;;;;10465897;28;20197;-79
2021/10/24 20:48:34;;;;;;;7.13;5.70;;;;;7.30;101432.00;;;;10448685;28;20283;-79
2021/10/24 20:53:41;;;;;;;10.57;5.53;;;;;7.30;101430.00;;;;10448703;28;20189;-79
2021/10/24 20:58:44;;;;;;;7.53;5.50;;;;;7.20;101437.00;;;;10458761;28;20207;-78
2021/10/24 21:03:45;;;;;;;8.10;5.00;;;;;7.20;101436.00;;;;10482404;28;20225;-79
2021/10/24 21:08:47;;;;;;;10.07;5.60;;;;;7.10;101435.00;;;;10421913;28;20753;-79
2021/10/24 21:13:49;;;;;;;7.07;5.13;;;;;6.90;101436.00;;;;10426307;28;20202;-79
2021/10/24 21:18:51;;;;;;;12.23;5.10;;;;;6.90;101431.00;;;;10431385;28;20576;-80
2021/10/24 21:23:54;;;;;;;8.80;5.20;;;;;6.90;101435.00;;;;10448486;28;20389;-79
2021/10/24 21:28:57;;;;;;;9.47;5.47;;;;;6.80;101432.00;;;;10464454;28;20237;-79
2021/10/24 21:33:59;;;;;;;8.20;5.37;;;;;6.70;101423.00;;;;10440403;28;20198;-79
2021/10/24 21:39:02;;;;;;;11.77;5.40;;;;;6.70;101422.00;;;;10402084;28;20784;-79
2021/10/24 21:44:04;;;;;;;9.87;5.80;;;;;6.60;101423.00;;;;10427162;28;20567;-79
2021/10/24 21:49:06;;;;;;;7.60;5.13;;;;;6.50;101415.00;;;;10426629;28;20938;-79
2021/10/24 21:54:08;;;;;;;9.27;5.67;;;;;6.40;101409.00;;;;10447720;28;20208;-78
2021/10/24 21:59:11;;;;;;;9.67;5.33;;;;;6.20;101395.00;;;;10447289;28;20759;-79
2021/10/24 22:04:13;;;;;;;10.77;6.07;;;;;6.10;101401.00;;;;10458709;28;20219;-78
2021/10/24 22:09:15;;;;;;;11.63;5.23;;;;;6.00;101393.00;;;;10462098;28;20229;-79
2021/10/24 22:14:17;;;;;;;8.83;5.57;;;;;5.90;101398.00;;;;10459463;28;20197;-78
2021/10/24 22:19:18;;;;;;;10.27;6.40;;;;;5.80;101396.00;;;;10479374;28;20190;-78
2021/10/24 22:24:22;;;;;;;7.83;5.63;;;;;5.70;101390.00;;;;10428595;28;20247;-78
2021/10/24 22:29:24;;;;;;;9.57;6.87;;;;;5.60;101400.00;;;;10445929;28;20267;-78
2021/10/24 22:34:27;;;;;;;12.70;6.40;;;;;5.60;101388.00;;;;10445117;28;20896;-79
2021/10/24 22:39:29;;;;;;;10.70;6.23;;;;;5.60;101388.00;;;;10462245;28;20197;-78
2021/10/24 22:44:31;;;;;;;10.43;6.80;;;;;5.60;101388.00;;;;10400253;28;20660;-78
2021/10/24 22:49:35;;;;;;;10.57;7.07;;;;;5.60;101385.00;;;;10420122;28;20224;-79
2021/10/24 22:54:39;;;;;;;12.13;7.57;;;;;5.70;101378.00;;;;10428879;28;20328;-78
2021/10/24 22:59:41;;;;;;;14.70;7.17;;;;;5.90;101381.00;;;;10452143;28;20201;-79
2021/10/24 23:04:43;;;;;;;13.10;6.43;;;;;6.00;101385.00;;;;10419824;28;20199;-78
2021/10/24 23:09:45;;;;;;;11.83;6.70;;;;;6.00;101383.00;;;;10455152;28;20255;-78
2021/10/24 23:14:49;;;;;;;10.73;6.27;;;;;6.10;101379.00;;;;10386870;28;20198;-79
2021/10/24 23:19:50;;;;;;;8.87;6.40;;;;;6.20;101380.00;;;;10421507;28;20190;-79
2021/10/24 23:24:52;;;;;;;9.33;6.23;;;;;6.20;101374.00;;;;10415148;28;20194;-79
2021/10/24 23:29:54;;;;;;;8.60;6.27;;;;;6.20;101377.00;;;;10421392;28;20229;-79
2021/10/24 23:34:58;;;;;;;12.60;6.90;;;;;6.20;101377.00;;;;10417889;28;20210;-79
2021/10/24 23:40:00;;;;;;;12.27;6.57;;;;;6.30;101381.00;;;;10403071;28;20209;-79
2021/10/24 23:45:02;;;;;;;12.30;6.33;;;;;6.40;101384.00;;;;10403924;28;20949;-79
2021/10/24 23:50:07;;;;;;;13.80;6.50;;;;;6.40;101386.00;;;;10440800;28;20210;-79
2021/10/24 23:55:08;;;;;;;8.17;6.37;;;;;6.40;101375.00;;;;10460741;28;20254;-79
